Gwyme, Virginia
Current Conditions -  °F | °C
As of 12:55 AM on Thursday 23 Oct 2014 (Local Time) from KW75 Reporting Station
Overcast Overcast  
Wind Chill: 55°   Ceiling: 3400
Heat Index: 55°   Visibility: 10mi
Dew Point: 46°   Wind: 17mph
Humidity: 72%   Direction: 330°NNW
Pressure: 29.89"   Gusts: 25mph
Location:  37.4982°N, 76.2873°W
Report Text: KW75 230455Z AUTO 33015G22KT 10SM OVC034 13/08 A2989 RMK AO1 T01260077 401400119
Loading
Personal Weather Stations






























Interactive Weather Map
Tropical Storm Tracking
New forecast layout! Learn more

10-Day Weather Forecast

Advertisements
Track Severe Weather on mobile